createdAt,value
2023-05-17T00:01:24.681Z,95017.78
2023-05-17T00:04:33.436Z,95019.03
2023-05-17T00:07:43.583Z,95021.13
2023-05-17T00:10:52.183Z,95024.09
2023-05-17T00:14:01.195Z,95032.22
2023-05-17T00:17:09.851Z,95033.22
2023-05-17T00:20:18.444Z,95038.78
2023-05-17T00:23:28.728Z,95040.41
2023-05-17T00:26:37.517Z,95046.53
2023-05-17T00:29:45.882Z,95044.97
2023-05-17T00:32:54.259Z,95048.63
2023-05-17T00:36:02.469Z,95056.88
2023-05-17T00:39:12.010Z,95059.13
2023-05-17T00:42:20.398Z,95062.25
2023-05-17T00:45:29.357Z,95059.38
2023-05-17T00:48:37.880Z,95062.66
2023-05-17T00:51:47.221Z,95068.19
2023-05-17T00:54:57.093Z,95065.94
2023-05-17T00:58:05.544Z,95066.81
2023-05-17T01:01:13.716Z,95066.50
2023-05-17T01:04:22.352Z,95059.28
2023-05-17T01:07:30.727Z,95065.94
2023-05-17T01:10:55.280Z,95068.59
2023-05-17T01:14:25.317Z,95056.69
2023-05-17T01:17:49.718Z,95061.31
2023-05-17T01:21:03.258Z,95079.84
2023-05-17T01:24:31.158Z,95082.50
2023-05-17T01:27:44.365Z,95079.84
2023-05-17T01:30:54.297Z,95085.16
2023-05-17T01:34:02.518Z,95083.81
2023-05-17T01:37:11.011Z,95095.41
2023-05-17T01:40:20.603Z,95094.09
2023-05-17T01:43:42.694Z,95094.78
2023-05-17T01:46:56.153Z,95094.97
2023-05-17T01:50:08.527Z,95102.06
2023-05-17T01:53:26.945Z,95097.97
2023-05-17T01:56:42.048Z,95101.25
2023-05-17T01:59:54.508Z,95100.78
2023-05-17T02:03:02.718Z,95103.59
2023-05-17T02:06:11.674Z,95102.31
2023-05-17T02:09:23.961Z,95100.66
2023-05-17T02:12:32.417Z,95102.31
2023-05-17T02:15:42.196Z,95101.50
2023-05-17T02:18:50.903Z,95109.22
2023-05-17T02:22:00.066Z,95110.06
2023-05-17T02:25:10.744Z,95115.34
2023-05-17T02:28:21.456Z,95119.50
2023-05-17T02:31:31.519Z,95122.78
2023-05-17T02:34:49.936Z,95119.78
2023-05-17T02:37:58.123Z,95125.72
2023-05-17T02:41:06.470Z,95123.75
2023-05-17T02:44:14.674Z,95128.25
2023-05-17T02:47:24.213Z,95129.25
2023-05-17T02:50:32.522Z,95133.25
2023-05-17T02:53:41.541Z,95144.84
2023-05-17T02:56:50.414Z,95143.06
2023-05-17T02:59:59.567Z,95149.78
2023-05-17T03:03:10.661Z,95155.41
2023-05-17T03:06:19.084Z,95157.41
2023-05-17T03:09:29.820Z,95163.00
2023-05-17T03:12:38.725Z,95170.97
2023-05-17T03:15:47.062Z,95172.75
2023-05-17T03:18:57.725Z,95169.72
2023-05-17T03:22:11.507Z,95173.78
2023-05-17T03:25:20.475Z,95184.84
2023-05-17T03:28:29.223Z,95187.09
2023-05-17T03:31:37.954Z,95180.88
2023-05-17T03:34:47.755Z,95194.41
2023-05-17T03:37:56.018Z,95196.75
2023-05-17T03:41:06.212Z,95206.81
2023-05-17T03:44:15.586Z,95206.00
2023-05-17T03:47:24.826Z,95208.47
2023-05-17T03:50:34.680Z,95219.72
2023-05-17T03:53:43.732Z,95217.22
2023-05-17T03:56:52.330Z,95218.03
2023-05-17T04:00:00.667Z,95225.81
2023-05-17T04:03:09.180Z,95232.75
2023-05-17T04:06:18.771Z,95234.75
2023-05-17T04:09:27.042Z,95241.56
2023-05-17T04:12:35.278Z,95240.25
2023-05-17T04:15:43.659Z,95246.09
2023-05-17T04:18:52.896Z,95250.72
2023-05-17T04:22:02.938Z,95257.88
2023-05-17T04:25:12.105Z,95257.38
2023-05-17T04:28:22.250Z,95258.38
2023-05-17T04:31:33.662Z,95262.53
2023-05-17T04:34:43.635Z,95271.97
2023-05-17T04:37:53.871Z,95266.31
2023-05-17T04:41:04.689Z,95276.41
2023-05-17T04:44:14.948Z,95281.19
2023-05-17T04:47:24.748Z,95282.50
2023-05-17T04:50:34.018Z,95286.59
2023-05-17T04:53:43.628Z,95288.44
2023-05-17T04:56:56.898Z,95292.06
2023-05-17T05:00:26.299Z,95289.06
2023-05-17T05:03:41.700Z,95287.91
2023-05-17T05:06:51.906Z,95291.66
2023-05-17T05:10:02.707Z,95286.69
2023-05-17T05:13:11.289Z,95295.91
2023-05-17T05:16:19.743Z,95301.97
2023-05-17T05:19:28.289Z,95301.78
2023-05-17T05:22:37.792Z,95305.97
2023-05-17T05:25:48.678Z,95307.53
2023-05-17T05:28:57.223Z,95306.69
2023-05-17T05:32:07.380Z,95307.84
2023-05-17T05:35:20.794Z,95301.78
2023-05-17T05:38:29.116Z,95299.03
2023-05-17T05:41:38.748Z,95303.78
2023-05-17T05:44:48.030Z,95299.78
2023-05-17T05:47:59.717Z,95305.00
2023-05-17T05:51:09.028Z,95300.34
2023-05-17T05:54:19.609Z,95303.13
2023-05-17T05:57:29.920Z,95308.53
2023-05-17T06:00:38.478Z,95308.19
2023-05-17T06:03:47.116Z,95303.75
2023-05-17T06:06:56.532Z,95307.06
2023-05-17T06:10:05.754Z,95316.00
2023-05-17T06:13:16.022Z,95316.97
2023-05-17T06:16:24.232Z,95323.25
2023-05-17T06:19:32.768Z,95323.97
2023-05-17T06:22:41.687Z,95331.53
2023-05-17T06:25:50.132Z,95339.75
2023-05-17T06:29:00.865Z,95337.63
2023-05-17T06:32:09.971Z,95333.91
2023-05-17T06:35:18.921Z,95344.69
2023-05-17T06:38:27.649Z,95352.00
2023-05-17T06:41:36.162Z,95350.50
2023-05-17T06:44:46.482Z,95357.16
2023-05-17T06:47:55.444Z,95349.75
2023-05-17T06:51:04.389Z,95346.50
2023-05-17T06:54:12.807Z,95363.13
2023-05-17T06:57:21.602Z,95355.63
2023-05-17T07:00:32.590Z,95359.88
2023-05-17T07:03:41.618Z,95369.88
2023-05-17T07:06:50.313Z,95375.97
2023-05-17T07:10:00.360Z,95375.88
2023-05-17T07:13:09.644Z,95374.69
2023-05-17T07:16:20.079Z,95373.13
2023-05-17T07:19:30.004Z,95378.47
2023-05-17T07:22:38.793Z,95380.19
2023-05-17T07:25:47.354Z,95375.56
2023-05-17T07:28:55.932Z,95378.41
2023-05-17T07:32:06.701Z,95376.72
2023-05-17T07:35:15.163Z,95374.81
2023-05-17T07:38:24.035Z,95373.28
2023-05-17T07:41:33.970Z,95385.13
2023-05-17T07:44:42.521Z,95381.59
2023-05-17T07:47:52.281Z,95379.91
2023-05-17T07:51:00.712Z,95383.50
2023-05-17T07:54:09.083Z,95387.69
2023-05-17T07:57:17.404Z,95383.63
2023-05-17T08:00:27.204Z,95382.44
2023-05-17T08:03:37.197Z,95385.31
2023-05-17T08:06:48.404Z,95398.13
2023-05-17T08:09:57.085Z,95387.41
2023-05-17T08:13:07.037Z,95394.69
2023-05-17T08:16:15.496Z,95395.50
2023-05-17T08:19:26.671Z,95392.25
2023-05-17T08:22:35.193Z,95390.00
2023-05-17T08:25:43.887Z,95396.88
2023-05-17T08:28:52.169Z,95391.41
2023-05-17T08:32:01.066Z,95394.69
2023-05-17T08:35:12.264Z,95391.78
2023-05-17T08:38:20.843Z,95404.03
2023-05-17T08:41:31.018Z,95407.00
2023-05-17T08:44:40.154Z,95409.97
2023-05-17T08:47:51.220Z,95413.91
2023-05-17T08:51:01.893Z,95425.16
2023-05-17T08:54:10.486Z,95416.06
2023-05-17T08:57:20.361Z,95433.41
2023-05-17T09:00:30.201Z,95438.91
2023-05-17T09:03:44.251Z,95442.16
2023-05-17T09:06:54.525Z,95439.09
2023-05-17T09:10:05.690Z,95437.66
2023-05-17T09:13:14.404Z,95442.00
2023-05-17T09:16:23.594Z,95434.34
2023-05-17T09:19:33.635Z,95439.66
2023-05-17T09:22:44.514Z,95439.28
2023-05-17T09:25:52.983Z,95446.16
2023-05-17T09:29:01.614Z,95445.69
2023-05-17T09:32:17.646Z,95439.38
2023-05-17T09:35:30.801Z,95444.03
2023-05-17T09:38:40.645Z,95434.31
2023-05-17T09:41:51.226Z,95438.50
2023-05-17T09:45:01.861Z,95431.50
2023-05-17T09:48:15.523Z,95431.66
2023-05-17T09:51:34.382Z,95430.59
2023-05-17T09:54:43.906Z,95442.00
2023-05-17T09:57:52.224Z,95433.16
2023-05-17T10:01:03.768Z,95435.78
2023-05-17T10:04:13.540Z,95434.22
2023-05-17T10:07:22.505Z,95428.25
2023-05-17T10:10:34.208Z,95432.91
2023-05-17T10:13:49.890Z,95429.41
2023-05-17T10:16:59.654Z,95433.38
2023-05-17T10:20:11.482Z,95436.63
2023-05-17T10:23:20.491Z,95428.00
2023-05-17T10:26:31.417Z,95425.75
2023-05-17T10:29:41.610Z,95419.88
2023-05-17T10:32:52.722Z,95418.84
2023-05-17T10:36:03.725Z,95418.16
2023-05-17T10:39:13.006Z,95414.78
2023-05-17T10:42:23.732Z,95417.75
2023-05-17T10:45:32.423Z,95411.91
2023-05-17T10:48:42.007Z,95408.97
2023-05-17T10:51:50.770Z,95417.34
2023-05-17T10:55:01.354Z,95405.63
2023-05-17T10:58:22.504Z,95404.81
2023-05-17T11:02:00.194Z,95413.00
2023-05-17T11:05:23.520Z,95403.25
2023-05-17T11:08:32.237Z,95396.00
2023-05-17T11:12:11.198Z,95399.13
2023-05-17T11:15:26.415Z,95386.94
2023-05-17T11:18:52.624Z,95384.44
2023-05-17T11:22:12.034Z,95381.16
2023-05-17T11:25:21.954Z,95386.88
2023-05-17T11:28:30.392Z,95385.66
2023-05-17T11:31:46.326Z,95386.88
2023-05-17T11:34:54.771Z,95379.59
2023-05-17T11:38:15.622Z,95377.34
2023-05-17T11:41:27.063Z,95376.22
2023-05-17T11:44:35.930Z,95383.56
2023-05-17T11:47:50.683Z,95379.06
2023-05-17T11:51:02.173Z,95381.38
2023-05-17T11:54:14.399Z,95380.06
2023-05-17T11:57:24.273Z,95380.78
2023-05-17T12:00:32.585Z,95383.47
2023-05-17T12:03:42.454Z,95384.63
2023-05-17T12:06:50.764Z,95381.28
2023-05-17T12:09:59.007Z,95386.78
2023-05-17T12:13:08.391Z,95388.53
2023-05-17T12:16:19.573Z,95392.25
2023-05-17T12:19:30.021Z,95396.50
2023-05-17T12:22:54.297Z,95393.09
2023-05-17T12:26:08.114Z,95398.28
2023-05-17T12:29:22.768Z,95398.72
2023-05-17T12:32:31.104Z,95401.94
2023-05-17T12:35:41.301Z,95398.00
2023-05-17T12:38:50.306Z,95402.03
2023-05-17T12:41:59.079Z,95406.16
2023-05-17T12:45:09.184Z,95405.22
2023-05-17T12:48:17.569Z,95408.31
2023-05-17T12:51:27.330Z,95404.84
2023-05-17T12:54:35.613Z,95403.63
2023-05-17T12:57:51.479Z,95399.16
2023-05-17T13:01:05.117Z,95400.78
2023-05-17T13:04:14.804Z,95391.59
2023-05-17T13:07:25.805Z,95391.00
2023-05-17T13:10:34.046Z,95397.59
2023-05-17T13:13:42.799Z,95402.34
2023-05-17T13:16:52.988Z,95391.97
2023-05-17T13:20:02.110Z,95396.69
2023-05-17T13:23:11.996Z,95398.09
2023-05-17T13:26:21.510Z,95396.22
2023-05-17T13:29:38.935Z,95393.06
2023-05-17T13:32:48.745Z,95384.34
2023-05-17T13:35:57.026Z,95388.06
2023-05-17T13:39:06.601Z,95396.94
2023-05-17T13:42:19.600Z,95391.97
2023-05-17T13:45:28.663Z,95392.81
2023-05-17T13:48:37.391Z,95390.00
2023-05-17T13:51:46.822Z,95395.72
2023-05-17T13:54:56.479Z,95390.22
2023-05-17T13:58:04.614Z,95401.09
2023-05-17T14:01:13.070Z,95399.63
2023-05-17T14:04:22.737Z,95399.38
2023-05-17T14:07:30.942Z,95394.38
2023-05-17T14:10:40.444Z,95386.31
2023-05-17T14:13:48.869Z,95390.84
2023-05-17T14:16:57.762Z,95386.19
2023-05-17T14:20:07.807Z,95392.22
2023-05-17T14:23:16.169Z,95384.38
2023-05-17T14:26:26.175Z,95385.38
2023-05-17T14:29:34.333Z,95391.59
2023-05-17T14:32:42.992Z,95386.19
2023-05-17T14:35:51.220Z,95384.75
2023-05-17T14:39:01.841Z,95391.06
2023-05-17T14:42:11.525Z,95393.22
2023-05-17T14:45:20.223Z,95390.50
2023-05-17T14:48:28.430Z,95397.41
2023-05-17T14:51:37.229Z,95393.13
2023-05-17T14:54:45.672Z,95397.97
2023-05-17T14:57:55.445Z,95402.72
2023-05-17T15:01:05.440Z,95399.72
2023-05-17T15:04:15.371Z,95399.66
2023-05-17T15:07:23.562Z,95403.47
2023-05-17T15:10:31.755Z,95404.84
2023-05-17T15:13:41.305Z,95395.28
2023-05-17T15:16:49.735Z,95397.88
2023-05-17T15:19:58.807Z,95402.00
2023-05-17T15:23:07.377Z,95401.25
2023-05-17T15:26:15.683Z,95398.59
2023-05-17T15:29:25.347Z,95401.31
2023-05-17T15:32:35.667Z,95401.28
2023-05-17T15:35:44.709Z,95397.97
2023-05-17T15:38:52.930Z,95397.28
2023-05-17T15:42:01.074Z,95400.44
2023-05-17T15:45:11.504Z,95407.84
2023-05-17T15:48:19.670Z,95405.94
2023-05-17T15:51:28.002Z,95399.53
2023-05-17T15:54:36.325Z,95403.53
2023-05-17T15:57:44.604Z,95401.84
2023-05-17T16:00:54.431Z,95401.84
2023-05-17T16:04:02.815Z,95398.16
2023-05-17T16:07:11.276Z,95399.22
2023-05-17T16:10:19.982Z,95405.38
2023-05-17T16:13:28.179Z,95404.84
2023-05-17T16:16:37.841Z,95388.47
2023-05-17T16:19:46.136Z,95397.50
2023-05-17T16:22:54.417Z,95398.41
2023-05-17T16:26:02.811Z,95404.00
2023-05-17T16:29:13.571Z,95410.75
2023-05-17T16:32:23.332Z,95411.13
2023-05-17T16:35:31.892Z,95413.56
2023-05-17T16:38:40.295Z,95422.59
2023-05-17T16:41:49.492Z,95419.25
2023-05-17T16:44:57.774Z,95426.25
2023-05-17T16:48:07.723Z,95428.25
2023-05-17T16:51:16.264Z,95433.97
2023-05-17T16:54:26.372Z,95429.44
2023-05-17T16:57:36.467Z,95433.13
2023-05-17T17:00:44.788Z,95428.59
2023-05-17T17:03:56.596Z,95436.16
2023-05-17T17:07:05.438Z,95438.59
2023-05-17T17:10:13.844Z,95432.66
2023-05-17T17:13:22.003Z,95438.16
2023-05-17T17:16:31.232Z,95436.28
2023-05-17T17:19:41.368Z,95440.59
2023-05-17T17:22:49.732Z,95449.25
2023-05-17T17:25:58.258Z,95442.63
2023-05-17T17:29:08.215Z,95439.69
2023-05-17T17:32:16.741Z,95448.06
2023-05-17T17:35:26.563Z,95463.03
2023-05-17T17:38:35.126Z,95462.38
2023-05-17T17:41:43.440Z,95454.31
2023-05-17T17:44:52.217Z,95467.00
2023-05-17T17:48:00.805Z,95464.66
2023-05-17T17:51:10.469Z,95466.63
2023-05-17T17:54:18.952Z,95474.03
2023-05-17T17:57:27.568Z,95474.00
2023-05-17T18:00:36.575Z,95477.44
2023-05-17T18:03:45.050Z,95474.75
2023-05-17T18:06:54.882Z,95468.94
2023-05-17T18:10:03.380Z,95481.13
2023-05-17T18:13:11.939Z,95485.25
2023-05-17T18:16:20.321Z,95485.63
2023-05-17T18:19:28.671Z,95493.34
2023-05-17T18:22:38.511Z,95488.50
2023-05-17T18:25:49.092Z,95487.13
2023-05-17T18:28:57.528Z,95492.03
2023-05-17T18:32:07.239Z,95501.16
2023-05-17T18:35:16.170Z,95492.88
2023-05-17T18:38:26.041Z,95498.31
2023-05-17T18:41:34.528Z,95498.16
2023-05-17T18:44:42.828Z,95502.88
2023-05-17T18:47:51.373Z,95497.09
2023-05-17T18:51:00.074Z,95501.09
2023-05-17T18:54:10.656Z,95512.56
2023-05-17T18:57:19.201Z,95510.31
2023-05-17T19:00:28.891Z,95511.50
2023-05-17T19:03:37.560Z,95513.06
2023-05-17T19:06:47.026Z,95517.38
2023-05-17T19:09:57.266Z,95520.88
2023-05-17T19:13:06.703Z,95520.78
2023-05-17T19:16:16.620Z,95516.47
2023-05-17T19:19:25.839Z,95530.50
2023-05-17T19:22:36.422Z,95525.28
2023-05-17T19:25:46.149Z,95536.00
2023-05-17T19:28:54.565Z,95529.38
2023-05-17T19:32:03.012Z,95538.34
2023-05-17T19:35:12.551Z,95543.22
2023-05-17T19:38:20.971Z,95540.09
2023-05-17T19:41:31.043Z,95545.47
2023-05-17T19:44:40.877Z,95549.22
2023-05-17T19:47:49.179Z,95550.22
2023-05-17T19:50:57.810Z,95554.44
2023-05-17T19:54:06.644Z,95554.00
2023-05-17T19:57:16.198Z,95553.50
2023-05-17T20:00:25.059Z,95553.88
2023-05-17T20:03:33.621Z,95550.59
2023-05-17T20:06:44.908Z,95543.94
2023-05-17T20:09:53.898Z,95550.66
2023-05-17T20:13:03.782Z,95555.47
2023-05-17T20:16:13.765Z,95552.16
2023-05-17T20:19:22.356Z,95557.19
2023-05-17T20:22:31.736Z,95559.84
2023-05-17T20:25:41.105Z,95563.69
2023-05-17T20:28:52.722Z,95567.72
2023-05-17T20:32:01.170Z,95563.41
2023-05-17T20:35:10.418Z,95564.44
2023-05-17T20:38:18.683Z,95566.44
2023-05-17T20:41:27.426Z,95563.34
2023-05-17T20:44:40.279Z,95567.16
2023-05-17T20:47:48.793Z,95566.50
2023-05-17T20:50:57.247Z,95562.84
2023-05-17T20:54:08.701Z,95570.53
2023-05-17T20:57:16.861Z,95572.19
2023-05-17T21:00:26.431Z,95567.03
2023-05-17T21:03:35.040Z,95574.53
2023-05-17T21:06:44.283Z,95575.22
2023-05-17T21:09:52.775Z,95575.72
2023-05-17T21:13:01.313Z,95574.56
2023-05-17T21:16:10.910Z,95567.75
2023-05-17T21:19:21.939Z,95567.22
2023-05-17T21:22:30.432Z,95566.59
2023-05-17T21:25:38.812Z,95569.19
2023-05-17T21:28:47.342Z,95559.91
2023-05-17T21:31:57.211Z,95572.63
2023-05-17T21:35:06.448Z,95564.78
2023-05-17T21:38:15.035Z,95569.63
2023-05-17T21:41:23.895Z,95564.81
2023-05-17T21:44:32.380Z,95562.81
2023-05-17T21:47:42.495Z,95562.31
2023-05-17T21:50:50.976Z,95559.03
2023-05-17T21:53:59.378Z,95559.03
2023-05-17T21:57:07.724Z,95560.78
2023-05-17T22:00:16.984Z,95558.13
2023-05-17T22:03:26.843Z,95557.63
2023-05-17T22:06:35.521Z,95558.88
2023-05-17T22:09:45.466Z,95564.44
2023-05-17T22:12:54.280Z,95559.78
2023-05-17T22:16:02.589Z,95560.50
2023-05-17T22:19:12.207Z,95555.50
2023-05-17T22:22:21.712Z,95556.84
2023-05-17T22:25:30.024Z,95553.34
2023-05-17T22:28:38.573Z,95550.38
2023-05-17T22:31:47.478Z,95554.50
2023-05-17T22:34:57.169Z,95549.53
2023-05-17T22:38:05.716Z,95545.41
2023-05-17T22:41:14.636Z,95546.22
2023-05-17T22:44:23.372Z,95544.94
2023-05-17T22:47:32.049Z,95550.56
2023-05-17T22:50:42.247Z,95542.50
2023-05-17T22:53:50.774Z,95542.06
2023-05-17T22:56:59.156Z,95541.41
2023-05-17T23:00:11.266Z,95533.84
2023-05-17T23:03:20.982Z,95532.88
2023-05-17T23:06:34.126Z,95529.56
2023-05-17T23:09:42.396Z,95525.44
2023-05-17T23:12:52.437Z,95513.84
2023-05-17T23:16:01.060Z,95514.16
2023-05-17T23:19:09.841Z,95507.25
2023-05-17T23:22:19.766Z,95506.41
2023-05-17T23:25:28.908Z,95505.06
2023-05-17T23:28:37.892Z,95504.25
2023-05-17T23:31:47.967Z,95505.03
2023-05-17T23:34:58.455Z,95503.72
2023-05-17T23:38:08.193Z,95495.41
2023-05-17T23:41:18.177Z,95492.25
2023-05-17T23:44:26.802Z,95488.94
2023-05-17T23:47:35.353Z,95491.03
2023-05-17T23:50:43.636Z,95485.72
2023-05-17T23:53:53.262Z,95489.03
2023-05-17T23:57:02.479Z,95485.06
